Terminal Aerodrome Forecast
Issued by NWS Riverton, WY

Home | Current Version | Previous Version | Text Only | Print | Product List | Glossary On
Versions: 1 2 3 4 5 6 7 8 9 10 11 12 13 14 15 16 17 18 19 20 21 22 23 24 25 26 27 28
000
FTUS45 KRIW 182100 AAB
TAFRIW
TAF AMD
KRIW 182128Z 1821/1918 VRB04KT P6SM BKN003
      TEMPO 1821/1823 3SM -SN BR BKN002
     FM190300 VRB03KT 2SM BR VV002
     FM191600 VRB04KT 3SM BR BKN004=

USA.gov is the U.S. government's official web portal to all federal, state and local government web resources and services.